createdAt,value
2019-04-30T00:01:07.532Z,18.80
2019-04-30T00:03:57.817Z,17.20
2019-04-30T00:06:21.995Z,14.83
2019-04-30T00:08:50.985Z,17.37
2019-04-30T00:11:19.952Z,16.30
2019-04-30T00:13:50.164Z,17.30
2019-04-30T00:16:19.339Z,16.03
2019-04-30T00:18:58.181Z,15.63
2019-04-30T00:21:18.968Z,16.50
2019-04-30T00:23:48.040Z,14.67
2019-04-30T00:26:17.275Z,17.83
2019-04-30T00:28:47.705Z,17.33
2019-04-30T00:31:23.479Z,17.20
2019-04-30T00:33:47.739Z,16.57
2019-04-30T00:36:17.345Z,18.27
2019-04-30T00:38:46.379Z,17.30
2019-04-30T00:41:15.599Z,18.47
2019-04-30T00:43:47.994Z,16.20
2019-04-30T00:46:17.420Z,15.93
2019-04-30T00:48:46.123Z,16.47
2019-04-30T00:51:21.181Z,17.90
2019-04-30T00:53:51.365Z,16.77
2019-04-30T00:56:19.981Z,16.13
2019-04-30T00:58:47.106Z,17.90
2019-04-30T01:01:30.612Z,17.43
2019-04-30T01:04:06.727Z,17.40
2019-04-30T01:06:35.796Z,19.00
2019-04-30T01:09:08.530Z,18.90
2019-04-30T01:11:39.729Z,16.67
2019-04-30T01:14:06.822Z,19.10
2019-04-30T01:16:35.862Z,19.57
2019-04-30T01:19:05.826Z,21.30
2019-04-30T01:21:35.664Z,19.10
2019-04-30T01:24:04.828Z,20.93
2019-04-30T01:26:34.146Z,20.33
2019-04-30T01:29:03.591Z,21.57
2019-04-30T01:31:37.323Z,18.40
2019-04-30T01:34:05.248Z,20.10
2019-04-30T01:36:34.207Z,19.60
2019-04-30T01:39:03.269Z,17.77
2019-04-30T01:41:32.275Z,19.93
2019-04-30T01:44:03.760Z,18.97
2019-04-30T01:46:32.000Z,18.83
2019-04-30T01:49:00.997Z,19.20
2019-04-30T01:51:30.069Z,19.40
2019-04-30T01:53:59.484Z,19.30
2019-04-30T01:56:49.875Z,17.60
2019-04-30T01:59:22.635Z,19.47
2019-04-30T02:01:51.717Z,19.43
2019-04-30T02:04:20.644Z,19.70
2019-04-30T02:06:49.557Z,19.27
2019-04-30T02:09:18.904Z,17.60
2019-04-30T02:11:49.531Z,18.37
2019-04-30T02:14:18.967Z,19.20
2019-04-30T02:16:49.439Z,18.83
2019-04-30T02:19:18.923Z,18.00
2019-04-30T02:21:48.664Z,18.43
2019-04-30T02:24:19.202Z,18.60
2019-04-30T02:26:48.601Z,18.20
2019-04-30T02:29:19.113Z,16.90
2019-04-30T02:31:50.424Z,16.90
2019-04-30T02:34:30.255Z,17.77
2019-04-30T02:37:12.935Z,17.73
2019-04-30T02:39:41.982Z,16.30
2019-04-30T02:42:13.188Z,19.47
2019-04-30T02:44:43.512Z,17.33
2019-04-30T02:47:14.112Z,18.87
2019-04-30T02:49:44.189Z,20.80
2019-04-30T02:52:15.209Z,16.53
2019-04-30T02:54:50.022Z,15.77
2019-04-30T02:57:22.998Z,17.60
2019-04-30T03:00:05.874Z,15.00
2019-04-30T03:02:34.957Z,17.97
2019-04-30T03:05:05.113Z,18.27
2019-04-30T03:07:34.136Z,16.20
2019-04-30T03:10:03.175Z,16.60
2019-04-30T03:12:33.777Z,17.10
2019-04-30T03:15:02.752Z,16.13
2019-04-30T03:17:42.646Z,15.00
2019-04-30T03:20:35.635Z,15.33
2019-04-30T03:23:02.445Z,16.23
2019-04-30T03:25:31.724Z,18.30
2019-04-30T03:28:00.693Z,19.13
2019-04-30T03:30:31.820Z,19.23
2019-04-30T03:33:02.741Z,18.80
2019-04-30T03:35:32.593Z,17.43
2019-04-30T03:38:01.961Z,17.00
2019-04-30T03:40:31.006Z,18.70
2019-04-30T03:43:03.068Z,18.93
2019-04-30T03:45:30.528Z,19.73
2019-04-30T03:48:00.475Z,19.13
2019-04-30T03:50:36.562Z,17.13
2019-04-30T03:53:03.123Z,20.63
2019-04-30T03:55:32.165Z,18.47
2019-04-30T03:58:01.203Z,19.50
2019-04-30T04:00:52.402Z,19.17
2019-04-30T04:03:21.336Z,22.10
2019-04-30T04:05:55.348Z,21.63
2019-04-30T04:08:32.632Z,20.97
2019-04-30T04:11:10.166Z,19.57
2019-04-30T04:13:40.027Z,18.97
2019-04-30T04:16:09.768Z,20.37
2019-04-30T04:18:40.140Z,19.70
2019-04-30T04:21:16.309Z,17.37
2019-04-30T04:23:40.133Z,18.43
2019-04-30T04:26:09.561Z,19.50
2019-04-30T04:28:43.087Z,20.10
2019-04-30T04:31:09.643Z,20.00
2019-04-30T04:33:39.517Z,18.10
2019-04-30T04:36:09.160Z,21.13
2019-04-30T04:38:40.335Z,22.10
2019-04-30T04:41:10.312Z,23.20
2019-04-30T04:43:40.177Z,18.40
2019-04-30T04:46:09.492Z,22.10
2019-04-30T04:48:39.418Z,21.67
2019-04-30T04:51:19.734Z,21.37
2019-04-30T04:53:40.173Z,18.97
2019-04-30T04:56:10.089Z,18.97
2019-04-30T04:58:40.141Z,19.30
2019-04-30T05:01:11.839Z,17.20
2019-04-30T05:03:40.525Z,17.60
2019-04-30T05:06:11.736Z,16.80
2019-04-30T05:08:40.325Z,14.80
2019-04-30T05:11:09.612Z,18.17
2019-04-30T05:13:39.006Z,16.67
2019-04-30T05:16:09.224Z,16.23
2019-04-30T05:18:39.118Z,17.57
2019-04-30T05:21:08.853Z,18.93
2019-04-30T05:23:40.249Z,17.43
2019-04-30T05:26:10.925Z,17.97
2019-04-30T05:28:39.468Z,19.33
2019-04-30T05:31:08.820Z,21.30
2019-04-30T05:33:39.070Z,20.53
2019-04-30T05:36:09.332Z,19.43
2019-04-30T05:38:39.227Z,18.03
2019-04-30T05:41:12.252Z,18.00
2019-04-30T05:43:42.666Z,18.47
2019-04-30T05:46:14.120Z,18.90
2019-04-30T05:48:43.814Z,18.83
2019-04-30T05:51:12.744Z,18.60
2019-04-30T05:53:41.779Z,20.27
2019-04-30T05:56:11.671Z,19.27
2019-04-30T05:58:41.854Z,18.83
2019-04-30T06:01:10.807Z,18.57
2019-04-30T06:03:40.354Z,19.10
2019-04-30T06:06:11.476Z,19.13
2019-04-30T06:08:48.964Z,18.13
2019-04-30T06:11:29.245Z,17.40
2019-04-30T06:14:19.802Z,19.43
2019-04-30T06:17:06.245Z,21.00
2019-04-30T06:19:39.057Z,22.03
2019-04-30T06:22:10.775Z,22.60
2019-04-30T06:24:40.152Z,22.13
2019-04-30T06:27:11.012Z,20.93
2019-04-30T06:29:41.396Z,20.37
2019-04-30T06:32:12.425Z,17.23
2019-04-30T06:34:43.065Z,17.87
2019-04-30T06:37:12.901Z,16.07
2019-04-30T06:39:43.184Z,16.67
2019-04-30T06:42:13.454Z,16.33
2019-04-30T06:44:43.588Z,16.33
2019-04-30T06:47:13.733Z,17.57
2019-04-30T06:49:43.368Z,17.73
2019-04-30T06:52:20.498Z,17.80
2019-04-30T06:54:44.890Z,16.07
2019-04-30T06:57:15.055Z,16.57
2019-04-30T06:59:44.699Z,16.90
2019-04-30T07:02:13.707Z,17.03
2019-04-30T07:04:42.653Z,15.83
2019-04-30T07:07:14.377Z,18.97
2019-04-30T07:09:56.916Z,15.07
2019-04-30T07:12:39.026Z,15.57
2019-04-30T07:15:08.771Z,16.20
2019-04-30T07:17:40.575Z,14.43
2019-04-30T07:20:10.559Z,16.53
2019-04-30T07:22:45.422Z,15.73
2019-04-30T07:25:10.239Z,16.10
2019-04-30T07:27:40.125Z,16.00
2019-04-30T07:30:10.211Z,15.33
2019-04-30T07:32:39.068Z,14.20
2019-04-30T07:35:09.462Z,15.30
2019-04-30T07:37:39.278Z,15.43
2019-04-30T07:40:09.267Z,16.27
2019-04-30T07:42:44.621Z,17.43
2019-04-30T07:45:09.754Z,16.10
2019-04-30T07:47:39.608Z,15.40
2019-04-30T07:50:10.736Z,16.00
2019-04-30T07:52:58.169Z,15.17
2019-04-30T07:55:11.284Z,14.33
2019-04-30T07:57:40.574Z,15.10
2019-04-30T08:00:10.203Z,15.03
2019-04-30T08:02:44.364Z,16.10
2019-04-30T08:05:25.689Z,14.83
2019-04-30T08:07:54.752Z,17.13
2019-04-30T08:10:23.786Z,16.07
2019-04-30T08:12:52.934Z,16.63
2019-04-30T08:15:22.680Z,15.83
2019-04-30T08:18:02.892Z,19.07
2019-04-30T08:20:22.281Z,19.63
2019-04-30T08:22:51.259Z,21.30
2019-04-30T08:25:22.043Z,19.30
2019-04-30T08:27:50.973Z,19.90
2019-04-30T08:30:26.761Z,17.17
2019-04-30T08:32:53.632Z,20.07
2019-04-30T08:35:22.638Z,19.63
2019-04-30T08:37:51.643Z,18.73
2019-04-30T08:40:20.707Z,16.97
2019-04-30T08:42:49.777Z,16.23
2019-04-30T08:45:19.680Z,14.57
2019-04-30T08:47:49.439Z,14.27
2019-04-30T08:50:19.917Z,19.43
2019-04-30T08:52:50.036Z,17.63
2019-04-30T08:55:22.222Z,16.37
2019-04-30T08:57:50.220Z,15.90
2019-04-30T09:00:19.774Z,13.90
2019-04-30T09:02:49.323Z,13.20
2019-04-30T09:05:36.320Z,15.43
2019-04-30T09:08:06.259Z,14.97
2019-04-30T09:10:35.232Z,15.30
2019-04-30T09:13:04.255Z,14.77
2019-04-30T09:15:33.328Z,13.80
2019-04-30T09:18:05.993Z,12.70
2019-04-30T09:20:32.991Z,14.20
2019-04-30T09:23:01.935Z,12.63
2019-04-30T09:25:30.816Z,12.57
2019-04-30T09:27:59.787Z,12.13
2019-04-30T09:30:29.919Z,11.40
2019-04-30T09:32:59.472Z,12.07
2019-04-30T09:35:32.181Z,12.47
2019-04-30T09:38:02.068Z,12.00
2019-04-30T09:40:32.580Z,10.87
2019-04-30T09:43:01.681Z,11.97
2019-04-30T09:45:30.663Z,13.03
2019-04-30T09:47:59.554Z,10.73
2019-04-30T09:50:29.237Z,13.00
2019-04-30T09:53:00.259Z,13.83
2019-04-30T09:55:29.227Z,16.27
2019-04-30T09:57:58.870Z,12.83
2019-04-30T10:00:29.546Z,11.63
2019-04-30T10:02:59.897Z,12.27
2019-04-30T10:05:29.431Z,12.20
2019-04-30T10:07:59.374Z,12.00
2019-04-30T10:10:33.969Z,12.50
2019-04-30T10:13:02.852Z,11.20
2019-04-30T10:15:51.620Z,12.77
2019-04-30T10:18:20.579Z,11.67
2019-04-30T10:20:49.619Z,10.63
2019-04-30T10:23:19.416Z,12.37
2019-04-30T10:25:49.006Z,11.77
2019-04-30T10:28:19.651Z,11.57
2019-04-30T10:30:48.675Z,12.00
2019-04-30T10:33:19.526Z,12.00
2019-04-30T10:35:49.699Z,11.87
2019-04-30T10:38:19.474Z,11.37
2019-04-30T10:40:48.887Z,10.93
2019-04-30T10:43:19.684Z,11.17
2019-04-30T10:45:48.647Z,10.60
2019-04-30T10:48:17.652Z,10.90
2019-04-30T10:50:46.563Z,11.37
2019-04-30T10:53:16.086Z,10.90
2019-04-30T10:55:44.967Z,12.20
2019-04-30T10:58:15.451Z,12.00
2019-04-30T11:00:44.947Z,13.13
2019-04-30T11:03:20.038Z,11.83
2019-04-30T11:05:44.763Z,13.50
2019-04-30T11:08:13.899Z,13.03
2019-04-30T11:10:43.324Z,12.97
2019-04-30T11:13:12.295Z,13.53
2019-04-30T11:15:41.252Z,14.13
2019-04-30T11:18:10.441Z,13.93
2019-04-30T11:20:39.992Z,13.73
2019-04-30T11:23:14.644Z,12.37
2019-04-30T11:25:41.263Z,12.73
2019-04-30T11:28:11.238Z,13.07
2019-04-30T11:30:40.911Z,14.73
2019-04-30T11:33:10.605Z,12.80
2019-04-30T11:35:39.708Z,13.00
2019-04-30T11:38:08.712Z,13.23
2019-04-30T11:40:39.996Z,12.37
2019-04-30T11:43:08.511Z,12.23
2019-04-30T11:46:18.672Z,12.10
2019-04-30T11:48:49.021Z,11.20
2019-04-30T11:51:19.380Z,11.33
2019-04-30T11:53:49.016Z,11.93
2019-04-30T11:56:18.284Z,10.33
2019-04-30T11:58:48.927Z,12.03
2019-04-30T12:01:19.912Z,10.47
2019-04-30T12:03:49.779Z,10.87
2019-04-30T12:06:18.925Z,10.90
2019-04-30T12:09:16.143Z,11.13
2019-04-30T12:11:45.379Z,11.07
2019-04-30T12:14:14.402Z,10.57
2019-04-30T12:16:43.384Z,12.23
2019-04-30T12:19:12.495Z,11.00
2019-04-30T12:21:42.692Z,11.53
2019-04-30T12:24:11.715Z,10.43
2019-04-30T12:26:40.920Z,10.93
2019-04-30T12:29:11.214Z,11.53
2019-04-30T12:31:40.296Z,11.90
2019-04-30T12:34:09.424Z,11.97
2019-04-30T12:36:38.867Z,10.47
2019-04-30T12:39:08.019Z,11.13
2019-04-30T12:41:38.993Z,11.77
2019-04-30T12:44:07.974Z,11.03
2019-04-30T12:46:38.717Z,11.33
2019-04-30T12:49:12.443Z,11.13
2019-04-30T12:51:48.824Z,10.60
2019-04-30T12:54:24.391Z,11.53
2019-04-30T12:57:05.881Z,12.63
2019-04-30T12:59:35.079Z,10.57
2019-04-30T13:02:04.651Z,10.63
2019-04-30T13:04:33.671Z,10.83
2019-04-30T13:07:03.359Z,9.03
2019-04-30T13:09:33.414Z,9.83
2019-04-30T13:12:03.395Z,9.60
2019-04-30T13:14:35.811Z,8.87
2019-04-30T13:17:03.879Z,8.33
2019-04-30T13:19:33.064Z,9.87
2019-04-30T13:22:02.246Z,10.30
2019-04-30T13:24:31.960Z,10.43
2019-04-30T13:27:00.984Z,8.60
2019-04-30T13:29:35.134Z,8.80
2019-04-30T13:32:04.321Z,8.87
2019-04-30T13:34:47.880Z,7.67
2019-04-30T13:37:16.921Z,9.40
2019-04-30T13:40:04.964Z,9.23
2019-04-30T13:42:39.003Z,8.87
2019-04-30T13:45:08.407Z,8.37
2019-04-30T13:47:39.054Z,8.77
2019-04-30T13:50:09.348Z,8.57
2019-04-30T13:52:38.924Z,9.57
2019-04-30T13:55:10.766Z,8.90
2019-04-30T13:57:39.140Z,10.20
2019-04-30T14:00:09.740Z,10.20
2019-04-30T14:02:44.637Z,10.97
2019-04-30T14:05:14.703Z,11.77
2019-04-30T14:08:09.495Z,10.67
2019-04-30T14:10:41.635Z,11.73
2019-04-30T14:13:11.761Z,10.07
2019-04-30T14:15:41.131Z,10.93
2019-04-30T14:18:10.239Z,10.50
2019-04-30T14:20:39.291Z,10.03
2019-04-30T14:23:08.516Z,10.23
2019-04-30T14:25:39.102Z,11.33
2019-04-30T14:28:09.448Z,12.67
2019-04-30T14:30:39.359Z,10.83
2019-04-30T14:33:09.452Z,9.90
2019-04-30T14:35:38.737Z,10.20
2019-04-30T14:38:09.063Z,10.33
2019-04-30T14:40:40.515Z,10.60
2019-04-30T14:43:29.696Z,10.03
2019-04-30T14:46:17.251Z,8.13
2019-04-30T14:48:50.781Z,8.03
2019-04-30T14:51:20.592Z,8.67
2019-04-30T14:54:02.728Z,9.67
2019-04-30T14:56:37.170Z,8.37
2019-04-30T14:59:28.948Z,7.77
2019-04-30T15:02:21.468Z,8.70
2019-04-30T15:04:50.564Z,7.87
2019-04-30T15:07:19.586Z,7.47
2019-04-30T15:09:48.636Z,8.00
2019-04-30T15:12:17.765Z,7.97
2019-04-30T15:14:49.163Z,7.93
2019-04-30T15:17:17.719Z,8.03
2019-04-30T15:19:48.816Z,8.23
2019-04-30T15:22:18.972Z,7.63
2019-04-30T15:24:49.202Z,7.20
2019-04-30T15:27:19.149Z,7.03
2019-04-30T15:29:56.655Z,7.43
2019-04-30T15:32:19.039Z,7.07
2019-04-30T15:34:49.071Z,8.00
2019-04-30T15:37:21.580Z,7.30
2019-04-30T15:39:49.115Z,7.27
2019-04-30T15:42:19.191Z,7.67
2019-04-30T15:44:50.077Z,6.27
2019-04-30T15:47:19.756Z,6.73
2019-04-30T15:49:49.090Z,7.20
2019-04-30T15:52:18.931Z,6.97
2019-04-30T15:54:49.076Z,7.30
2019-04-30T15:57:18.972Z,7.77
2019-04-30T15:59:48.140Z,8.00
2019-04-30T16:02:22.987Z,7.77
2019-04-30T16:05:12.512Z,8.33
2019-04-30T16:07:49.280Z,8.20
2019-04-30T16:10:40.473Z,8.53
2019-04-30T16:13:14.747Z,7.63
2019-04-30T16:15:43.879Z,6.87
2019-04-30T16:18:12.919Z,6.93
2019-04-30T16:20:41.915Z,7.13
2019-04-30T16:23:11.113Z,8.30
2019-04-30T16:25:40.200Z,9.47
2019-04-30T16:28:10.157Z,9.27
2019-04-30T16:30:39.211Z,9.20
2019-04-30T16:33:09.505Z,8.33
2019-04-30T16:35:38.537Z,9.37
2019-04-30T16:38:09.231Z,9.90
2019-04-30T16:40:38.680Z,10.67
2019-04-30T16:43:07.707Z,10.17
2019-04-30T16:45:36.690Z,9.63
2019-04-30T16:48:05.717Z,9.73
2019-04-30T16:50:34.696Z,10.87
2019-04-30T16:53:03.774Z,11.37
2019-04-30T16:55:33.115Z,12.40
2019-04-30T16:58:02.160Z,13.50
2019-04-30T17:00:31.287Z,12.97
2019-04-30T17:03:04.608Z,11.47
2019-04-30T17:05:40.216Z,12.77
2019-04-30T17:08:14.722Z,12.37
2019-04-30T17:10:52.849Z,13.33
2019-04-30T17:13:30.409Z,14.80
2019-04-30T17:16:06.473Z,14.33
2019-04-30T17:18:35.469Z,13.20
2019-04-30T17:21:04.621Z,12.30
2019-04-30T17:23:34.256Z,13.07
2019-04-30T17:26:03.511Z,11.53
2019-04-30T17:28:32.505Z,11.83
2019-04-30T17:31:01.596Z,11.90
2019-04-30T17:33:30.607Z,12.87
2019-04-30T17:35:59.627Z,14.13
2019-04-30T17:38:28.688Z,13.07
2019-04-30T17:40:57.902Z,13.40
2019-04-30T17:43:27.103Z,13.37
2019-04-30T17:45:56.154Z,14.07
2019-04-30T17:48:25.131Z,13.70
2019-04-30T17:50:54.623Z,13.27
2019-04-30T17:53:24.083Z,13.13
2019-04-30T17:55:53.186Z,13.13
2019-04-30T17:58:22.268Z,12.50
2019-04-30T18:00:54.544Z,13.33
2019-04-30T18:03:23.540Z,21.30
2019-04-30T18:05:52.600Z,15.93
2019-04-30T18:08:21.968Z,14.83
2019-04-30T18:10:50.961Z,13.13
2019-04-30T18:13:19.956Z,14.83
2019-04-30T18:15:49.540Z,15.90
2019-04-30T18:18:23.866Z,14.73
2019-04-30T18:21:18.978Z,13.57
2019-04-30T18:24:22.423Z,13.73
2019-04-30T18:26:59.317Z,15.27
2019-04-30T18:29:28.297Z,16.40
2019-04-30T18:31:59.805Z,15.87
2019-04-30T18:34:29.192Z,15.87
2019-04-30T18:36:59.336Z,16.23
2019-04-30T18:39:28.974Z,16.13
2019-04-30T18:41:58.214Z,15.70
2019-04-30T18:44:29.381Z,14.03
2019-04-30T18:46:59.030Z,16.23
2019-04-30T18:49:28.706Z,14.53
2019-04-30T18:51:59.053Z,15.10
2019-04-30T18:54:28.937Z,15.50
2019-04-30T18:56:58.980Z,16.70
2019-04-30T18:59:28.164Z,16.13
2019-04-30T19:01:57.224Z,16.40
2019-04-30T19:04:28.682Z,15.43
2019-04-30T19:07:00.374Z,16.00
2019-04-30T19:09:49.065Z,16.67
2019-04-30T19:12:35.687Z,15.30
2019-04-30T19:15:37.030Z,14.73
2019-04-30T19:18:15.504Z,15.10
2019-04-30T19:20:47.306Z,14.80
2019-04-30T19:23:16.477Z,15.70
2019-04-30T19:25:45.441Z,14.30
2019-04-30T19:28:14.749Z,15.10
2019-04-30T19:30:54.937Z,14.00
2019-04-30T19:33:14.557Z,13.73
2019-04-30T19:35:43.619Z,15.00
2019-04-30T19:38:12.691Z,14.23
2019-04-30T19:40:41.674Z,15.40
2019-04-30T19:43:10.773Z,14.10
2019-04-30T19:45:39.673Z,14.17
2019-04-30T19:48:09.005Z,14.50
2019-04-30T19:50:38.105Z,13.33
2019-04-30T19:53:08.760Z,15.00
2019-04-30T19:55:39.355Z,13.70
2019-04-30T19:58:10.656Z,13.60
2019-04-30T20:00:39.183Z,13.67
2019-04-30T20:03:08.912Z,14.63
2019-04-30T20:05:39.462Z,14.90
2019-04-30T20:08:10.954Z,14.33
2019-04-30T20:10:39.851Z,14.80
2019-04-30T20:13:10.806Z,15.07
2019-04-30T20:15:39.592Z,14.63
2019-04-30T20:18:09.027Z,14.57
2019-04-30T20:20:40.030Z,14.30
2019-04-30T20:23:09.189Z,14.70
2019-04-30T20:25:38.182Z,14.70
2019-04-30T20:28:07.220Z,14.27
2019-04-30T20:30:36.111Z,15.60
2019-04-30T20:33:05.161Z,15.97
2019-04-30T20:35:34.180Z,16.13
2019-04-30T20:38:21.299Z,16.30
2019-04-30T20:40:59.506Z,14.67
2019-04-30T20:43:22.303Z,15.20
2019-04-30T20:45:51.329Z,17.33
2019-04-30T20:48:20.291Z,15.97
2019-04-30T20:50:49.215Z,17.93
2019-04-30T20:53:19.792Z,14.10
2019-04-30T20:55:49.548Z,15.97
2019-04-30T20:58:18.686Z,16.37
2019-04-30T21:01:00.304Z,15.13
2019-04-30T21:03:19.628Z,16.10
2019-04-30T21:05:48.832Z,15.97
2019-04-30T21:08:17.885Z,15.23
2019-04-30T21:10:46.937Z,15.90
2019-04-30T21:13:16.159Z,15.23
2019-04-30T21:15:45.221Z,13.83
2019-04-30T21:18:14.477Z,12.90
2019-04-30T21:20:43.503Z,14.57
2019-04-30T21:23:12.595Z,13.03
2019-04-30T21:25:41.501Z,13.80
2019-04-30T21:28:10.683Z,14.60
2019-04-30T21:30:39.595Z,13.90
2019-04-30T21:33:14.903Z,13.03
2019-04-30T21:35:48.609Z,11.67
2019-04-30T21:38:19.418Z,11.57
2019-04-30T21:40:49.289Z,12.97
2019-04-30T21:43:18.403Z,11.83
2019-04-30T21:45:49.274Z,12.63
2019-04-30T21:48:19.141Z,12.80
2019-04-30T21:50:49.778Z,10.07
2019-04-30T21:53:19.569Z,11.67
2019-04-30T21:55:49.728Z,12.57
2019-04-30T21:58:20.404Z,12.67
2019-04-30T22:01:10.963Z,12.17
2019-04-30T22:03:40.787Z,12.43
2019-04-30T22:06:10.622Z,12.47
2019-04-30T22:08:39.906Z,12.47
2019-04-30T22:11:09.785Z,13.03
2019-04-30T22:13:39.708Z,13.13
2019-04-30T22:16:09.981Z,13.90
2019-04-30T22:18:39.019Z,13.40
2019-04-30T22:21:09.077Z,13.23
2019-04-30T22:23:38.295Z,13.83
2019-04-30T22:26:07.405Z,11.80
2019-04-30T22:28:36.443Z,16.50
2019-04-30T22:31:05.638Z,17.93
2019-04-30T22:33:34.671Z,15.67
2019-04-30T22:36:16.631Z,16.83
2019-04-30T22:39:12.023Z,14.23
2019-04-30T22:41:41.139Z,15.23
2019-04-30T22:44:10.274Z,14.37
2019-04-30T22:46:39.498Z,13.30
2019-04-30T22:49:09.046Z,12.30
2019-04-30T22:51:38.110Z,14.40
2019-04-30T22:54:07.131Z,12.17
2019-04-30T22:56:36.216Z,12.63
2019-04-30T22:59:05.223Z,15.13
2019-04-30T23:01:54.487Z,13.63
2019-04-30T23:04:36.163Z,14.03
2019-04-30T23:07:05.855Z,13.17
2019-04-30T23:09:34.899Z,12.93
2019-04-30T23:12:04.802Z,11.40
2019-04-30T23:14:34.078Z,14.13
2019-04-30T23:17:04.625Z,13.47
2019-04-30T23:19:33.751Z,14.27
2019-04-30T23:22:02.942Z,14.47
2019-04-30T23:24:31.844Z,13.67
2019-04-30T23:27:00.884Z,12.57
2019-04-30T23:29:30.015Z,12.57
2019-04-30T23:31:58.988Z,13.47
2019-04-30T23:34:27.867Z,13.73
2019-04-30T23:36:56.743Z,13.97
2019-04-30T23:39:25.891Z,16.00
2019-04-30T23:41:54.835Z,15.63
2019-04-30T23:44:23.874Z,13.83
2019-04-30T23:46:54.686Z,13.57
2019-04-30T23:49:23.580Z,12.67
2019-04-30T23:51:52.493Z,13.63
2019-04-30T23:54:21.431Z,13.37
2019-04-30T23:56:50.322Z,13.80
2019-04-30T23:59:19.220Z,13.00
